Time;durP1;ratioP1;P1;durP2;ratioP2;P2;SDS_P1;SDS_P2;PMS_P1;PMS_P2;Temp;Humidity;BMP_temperature;BMP_pressure;BME280_temperature;BME280_humidity;BME280_pressure;Samples;Min_cycle;Max_cycle;Signal;HPM_P1;HPM_P2
2023/03/13 00:01:19;;;;;;;7.10;4.80;;;;;;;;;;104719;264;42887;-33
2023/03/13 00:03:59;;;;;;;7.70;5.00;;;;;;;;;;104683;264;43350;-33
2023/03/13 00:06:37;;;;;;;7.60;4.90;;;;;;;;;;104710;253;40113;-33
2023/03/13 00:09:13;;;;;;;7.50;5.00;;;;;;;;;;104713;264;40789;-33
2023/03/13 00:11:48;;;;;;;7.60;5.10;;;;;;;;;;104722;264;42992;-33
2023/03/13 00:14:23;;;;;;;8.00;5.10;;;;;;;;;;104634;264;43334;-33
2023/03/13 00:16:58;;;;;;;7.50;4.70;;;;;;;;;;104741;264;38659;-32
2023/03/13 00:19:31;;;;;;;7.70;4.90;;;;;;;;;;104709;264;39689;-32
2023/03/13 00:22:05;;;;;;;7.40;4.60;;;;;;;;;;104727;264;43892;-33
2023/03/13 00:24:39;;;;;;;7.50;4.60;;;;;;;;;;104675;264;42154;-33
2023/03/13 00:27:14;;;;;;;7.50;5.10;;;;;;;;;;104626;264;175749;-33
2023/03/13 00:29:49;;;;;;;7.40;4.80;;;;;;;;;;104683;264;40830;-33
2023/03/13 00:32:26;;;;;;;7.60;4.70;;;;;;;;;;104713;264;42893;-33
2023/03/13 00:35:02;;;;;;;7.00;4.70;;;;;;;;;;104683;264;43410;-33
2023/03/13 00:37:38;;;;;;;7.50;4.70;;;;;;;;;;104731;264;38904;-33
2023/03/13 00:40:14;;;;;;;7.10;4.80;;;;;;;;;;104696;264;40889;-33
2023/03/13 00:42:50;;;;;;;7.60;5.00;;;;;;;;;;104730;264;44008;-33
2023/03/13 00:45:24;;;;;;;7.40;4.60;;;;;;;;;;104670;264;42171;-33
2023/03/13 00:48:00;;;;;;;7.10;4.70;;;;;;;;;;104684;264;38820;-33
2023/03/13 00:50:34;;;;;;;7.50;4.70;;;;;;;;;;104721;264;40979;-33
2023/03/13 00:53:09;;;;;;;7.20;4.60;;;;;;;;;;104699;264;44038;-33
2023/03/13 00:55:53;;;;;;;7.50;4.80;;;;;;;;;;104682;264;42156;-33
2023/03/13 00:58:33;;;;;;;7.10;4.70;;;;;;;;;;104094;264;896518;-32
2023/03/13 01:01:17;;;;;;;6.80;4.40;;;;;;;;;;104719;264;39959;-33
2023/03/13 01:03:55;;;;;;;7.10;4.40;;;;;;;;;;104749;264;43978;-33
2023/03/13 01:06:34;;;;;;;7.10;4.30;;;;;;;;;;104736;264;43395;-32
2023/03/13 01:09:10;;;;;;;7.10;4.60;;;;;;;;;;104739;264;38950;-33
2023/03/13 01:11:46;;;;;;;7.30;4.60;;;;;;;;;;104785;264;39666;-33
2023/03/13 01:14:26;;;;;;;7.00;4.40;;;;;;;;;;104807;264;42944;-33
2023/03/13 01:17:00;;;;;;;7.30;4.80;;;;;;;;;;104702;264;43442;-32
2023/03/13 01:19:34;;;;;;;7.30;4.50;;;;;;;;;;104734;264;40024;-32
2023/03/13 01:22:12;;;;;;;7.00;4.40;;;;;;;;;;104692;264;40995;-33
2023/03/13 01:24:48;;;;;;;7.60;4.50;;;;;;;;;;104620;264;175702;-32
2023/03/13 01:27:23;;;;;;;6.80;4.30;;;;;;;;;;104631;265;50076;-33
2023/03/13 01:30:00;;;;;;;7.10;4.20;;;;;;;;;;104721;264;39166;-32
2023/03/13 01:32:36;;;;;;;6.80;4.40;;;;;;;;;;104613;264;175669;-33
2023/03/13 01:35:11;;;;;;;7.40;4.50;;;;;;;;;;104777;264;42895;-33
2023/03/13 01:37:45;;;;;;;7.50;4.90;;;;;;;;;;104715;264;43318;-33
2023/03/13 01:40:20;;;;;;;7.40;4.40;;;;;;;;;;104714;264;40444;-32
2023/03/13 01:42:59;;;;;;;6.90;4.20;;;;;;;;;;104711;264;39333;-32
2023/03/13 01:46:03;;;;;;;6.80;4.40;;;;;;;;;;104721;264;44373;-32
2023/03/13 01:48:47;;;;;;;7.00;4.20;;;;;;;;;;104728;264;51105;-32
2023/03/13 01:51:27;;;;;;;6.90;4.40;;;;;;;;;;104648;264;175677;-33
2023/03/13 01:54:08;;;;;;;7.60;4.80;;;;;;;;;;104572;264;314091;-33
2023/03/13 01:56:46;;;;;;;7.00;4.30;;;;;;;;;;104769;264;43044;-33
2023/03/13 01:59:30;;;;;;;6.80;4.30;;;;;;;;;;104787;264;42192;-33
2023/03/13 02:02:08;;;;;;;6.60;4.20;;;;;;;;;;104717;264;39169;-33
2023/03/13 02:04:48;;;;;;;6.60;4.40;;;;;;;;;;104777;264;39720;-33
2023/03/13 02:07:29;;;;;;;6.50;4.20;;;;;;;;;;104658;264;42985;-33
2023/03/13 02:10:04;;;;;;;6.40;4.20;;;;;;;;;;104734;264;43494;-33
2023/03/13 02:12:41;;;;;;;6.40;4.20;;;;;;;;;;104768;264;40098;-33
2023/03/13 02:15:18;;;;;;;6.40;4.10;;;;;;;;;;104812;264;39804;-33
2023/03/13 02:17:55;;;;;;;6.60;4.20;;;;;;;;;;104730;264;42877;-33
2023/03/13 02:20:31;;;;;;;7.30;4.40;;;;;;;;;;104726;264;42349;-33
2023/03/13 02:23:12;;;;;;;6.80;4.00;;;;;;;;;;104735;264;38840;-32
2023/03/13 02:25:53;;;;;;;6.30;3.90;;;;;;;;;;104744;264;39697;-33
2023/03/13 02:28:34;;;;;;;6.00;3.70;;;;;;;;;;104739;264;43156;-32
2023/03/13 02:31:11;;;;;;;6.60;4.00;;;;;;;;;;104746;264;42361;-33
2023/03/13 02:33:45;;;;;;;6.80;4.30;;;;;;;;;;104711;264;38933;-33
2023/03/13 02:36:20;;;;;;;6.60;4.00;;;;;;;;;;104697;264;40024;-32
2023/03/13 02:39:00;;;;;;;6.40;3.80;;;;;;;;;;104710;264;43144;-33
2023/03/13 02:41:36;;;;;;;6.60;4.00;;;;;;;;;;104752;264;42264;-33
2023/03/13 02:44:10;;;;;;;6.70;3.90;;;;;;;;;;104725;264;38889;-33
2023/03/13 02:46:54;;;;;;;6.90;4.10;;;;;;;;;;104721;264;39819;-33
2023/03/13 02:49:30;;;;;;;6.90;4.00;;;;;;;;;;104640;264;43021;-32
2023/03/13 02:52:14;;;;;;;5.90;3.70;;;;;;;;;;104710;264;41934;-33
2023/03/13 02:54:52;;;;;;;5.80;3.60;;;;;;;;;;104722;264;39900;-32
2023/03/13 02:57:26;;;;;;;6.20;3.90;;;;;;;;;;104697;265;39985;-32
2023/03/13 03:00:00;;;;;;;6.50;3.80;;;;;;;;;;104685;264;44332;-32
2023/03/13 03:02:33;;;;;;;6.60;3.90;;;;;;;;;;104707;264;42030;-32
2023/03/13 03:05:11;;;;;;;6.30;3.80;;;;;;;;;;104726;264;38626;-32
2023/03/13 03:07:44;;;;;;;5.80;3.70;;;;;;;;;;104705;253;39366;-33
2023/03/13 03:10:18;;;;;;;6.70;4.10;;;;;;;;;;104696;264;50428;-32
2023/03/13 03:12:55;;;;;;;6.10;3.70;;;;;;;;;;104725;264;43492;-33
2023/03/13 03:15:30;;;;;;;6.80;3.90;;;;;;;;;;104707;264;40004;-32
2023/03/13 03:18:05;;;;;;;5.90;3.70;;;;;;;;;;104684;264;39726;-33
2023/03/13 03:20:41;;;;;;;6.50;3.80;;;;;;;;;;104703;264;48966;-32
2023/03/13 03:23:16;;;;;;;6.10;3.50;;;;;;;;;;104663;265;42182;-32
2023/03/13 03:25:49;;;;;;;6.60;3.80;;;;;;;;;;104742;264;38952;-33
2023/03/13 03:28:28;;;;;;;6.80;4.10;;;;;;;;;;104692;264;39602;-33
2023/03/13 03:31:09;;;;;;;5.90;3.60;;;;;;;;;;104743;264;49072;-32
2023/03/13 03:33:46;;;;;;;6.10;3.70;;;;;;;;;;104717;264;42181;-33
2023/03/13 03:36:24;;;;;;;6.10;3.90;;;;;;;;;;104681;264;41056;-33
2023/03/13 03:38:59;;;;;;;5.70;3.60;;;;;;;;;;104718;264;40830;-33
2023/03/13 03:41:32;;;;;;;5.80;3.40;;;;;;;;;;104092;264;897873;-32
2023/03/13 03:44:07;;;;;;;6.10;3.60;;;;;;;;;;104737;264;43410;-32
2023/03/13 03:46:41;;;;;;;5.90;3.70;;;;;;;;;;104743;264;39766;-33
2023/03/13 03:49:16;;;;;;;6.50;3.70;;;;;;;;;;104667;264;39530;-33
2023/03/13 03:51:51;;;;;;;6.40;3.70;;;;;;;;;;104756;264;43070;-32
2023/03/13 03:54:28;;;;;;;5.80;3.80;;;;;;;;;;104717;264;42182;-32
2023/03/13 03:57:01;;;;;;;6.10;3.80;;;;;;;;;;104694;264;39965;-33
2023/03/13 03:59:35;;;;;;;6.40;4.00;;;;;;;;;;104663;264;39971;-33
2023/03/13 04:02:08;;;;;;;5.90;3.60;;;;;;;;;;104625;264;45084;-33
2023/03/13 04:04:42;;;;;;;5.60;3.50;;;;;;;;;;104705;264;43351;-33
2023/03/13 04:07:22;;;;;;;6.10;3.40;;;;;;;;;;104727;264;38604;-32
2023/03/13 04:09:59;;;;;;;5.90;3.40;;;;;;;;;;104685;264;39846;-32
2023/03/13 04:12:32;;;;;;;6.40;3.40;;;;;;;;;;104724;264;44970;-33
2023/03/13 04:15:08;;;;;;;6.10;3.40;;;;;;;;;;104729;264;42599;-32
2023/03/13 04:17:41;;;;;;;6.90;3.90;;;;;;;;;;104733;264;39951;-32
2023/03/13 04:20:16;;;;;;;6.50;3.70;;;;;;;;;;104688;253;39681;-33
2023/03/13 04:22:52;;;;;;;6.70;3.70;;;;;;;;;;104742;264;43943;-32
2023/03/13 04:25:28;;;;;;;6.30;4.00;;;;;;;;;;104681;264;43323;-32
2023/03/13 04:28:04;;;;;;;6.60;3.60;;;;;;;;;;104739;264;38950;-32
2023/03/13 04:30:37;;;;;;;6.00;3.40;;;;;;;;;;104677;264;39385;-33
2023/03/13 04:33:11;;;;;;;6.20;3.90;;;;;;;;;;104700;253;42710;-32
2023/03/13 04:35:45;;;;;;;6.60;3.70;;;;;;;;;;104758;264;42290;-32
2023/03/13 04:38:19;;;;;;;7.40;3.70;;;;;;;;;;104718;264;39827;-33
2023/03/13 04:40:54;;;;;;;6.20;3.60;;;;;;;;;;104694;264;39872;-33
2023/03/13 04:43:32;;;;;;;7.10;4.10;;;;;;;;;;104740;264;42874;-33
2023/03/13 04:46:06;;;;;;;6.60;3.70;;;;;;;;;;104708;264;43255;-33
2023/03/13 04:48:41;;;;;;;6.50;3.50;;;;;;;;;;104741;264;39131;-32
2023/03/13 04:51:15;;;;;;;6.90;3.80;;;;;;;;;;104723;264;39678;-33
2023/03/13 04:53:50;;;;;;;6.20;3.70;;;;;;;;;;104748;264;44220;-32
2023/03/13 04:56:29;;;;;;;6.40;3.80;;;;;;;;;;104751;264;43259;-32
2023/03/13 04:59:19;;;;;;;6.50;3.70;;;;;;;;;;104639;264;38788;-32
2023/03/13 05:01:57;;;;;;;5.80;3.70;;;;;;;;;;104656;265;39715;-32
2023/03/13 05:04:31;;;;;;;6.10;3.60;;;;;;;;;;104035;264;897430;-33
2023/03/13 05:07:05;;;;;;;5.80;3.30;;;;;;;;;;104733;264;42277;-32
2023/03/13 05:09:39;;;;;;;6.50;3.50;;;;;;;;;;104732;264;38824;-33
2023/03/13 05:12:13;;;;;;;5.70;3.50;;;;;;;;;;104674;264;40964;-33
2023/03/13 05:14:46;;;;;;;6.80;3.70;;;;;;;;;;104725;264;44077;-33
2023/03/13 05:17:20;;;;;;;6.40;3.20;;;;;;;;;;104767;264;42212;-33
2023/03/13 05:19:58;;;;;;;6.50;3.60;;;;;;;;;;104765;264;38865;-32
2023/03/13 05:22:35;;;;;;;6.10;3.50;;;;;;;;;;104680;264;40787;-33
2023/03/13 05:25:10;;;;;;;6.00;3.50;;;;;;;;;;104738;261;44171;-33
2023/03/13 05:27:44;;;;;;;5.80;3.30;;;;;;;;;;104743;264;43182;-33
2023/03/13 05:30:18;;;;;;;6.60;3.70;;;;;;;;;;104749;264;40326;-33
2023/03/13 05:32:53;;;;;;;7.10;3.50;;;;;;;;;;104715;264;40787;-33
2023/03/13 05:35:31;;;;;;;5.80;3.30;;;;;;;;;;104753;264;44028;-33
2023/03/13 05:38:07;;;;;;;7.10;3.40;;;;;;;;;;104756;264;42224;-33
2023/03/13 05:40:42;;;;;;;6.40;3.50;;;;;;;;;;104728;264;40011;-32
2023/03/13 05:43:18;;;;;;;6.30;3.20;;;;;;;;;;104650;265;39711;-33
2023/03/13 05:45:54;;;;;;;6.10;3.50;;;;;;;;;;104700;264;43663;-33
2023/03/13 05:48:30;;;;;;;6.20;3.40;;;;;;;;;;104726;264;42140;-33
2023/03/13 05:51:04;;;;;;;6.00;3.40;;;;;;;;;;104758;264;38891;-32
2023/03/13 05:53:40;;;;;;;6.30;3.60;;;;;;;;;;104700;264;175281;-33
2023/03/13 05:56:14;;;;;;;6.20;3.50;;;;;;;;;;104680;264;43062;-33
2023/03/13 05:58:48;;;;;;;6.30;3.30;;;;;;;;;;104752;264;42148;-33
2023/03/13 06:01:25;;;;;;;6.30;3.20;;;;;;;;;;104679;265;40019;-32
2023/03/13 06:04:01;;;;;;;5.50;3.00;;;;;;;;;;104656;264;47678;-33
2023/03/13 06:06:37;;;;;;;5.50;3.30;;;;;;;;;;104762;264;43063;-33
2023/03/13 06:09:11;;;;;;;6.30;3.30;;;;;;;;;;104696;264;42504;-33
2023/03/13 06:11:44;;;;;;;5.80;3.10;;;;;;;;;;104711;264;38798;-33
2023/03/13 06:14:18;;;;;;;6.30;3.40;;;;;;;;;;104652;264;46535;-32
2023/03/13 06:16:52;;;;;;;5.90;3.20;;;;;;;;;;104710;264;42894;-33
2023/03/13 06:19:29;;;;;;;6.30;3.50;;;;;;;;;;104630;264;175679;-33
2023/03/13 06:22:05;;;;;;;6.70;3.30;;;;;;;;;;104738;264;39119;-33
2023/03/13 06:24:39;;;;;;;5.60;2.90;;;;;;;;;;104695;264;46095;-33
2023/03/13 06:27:13;;;;;;;5.70;3.30;;;;;;;;;;104717;264;43000;-33
2023/03/13 06:29:49;;;;;;;6.10;3.30;;;;;;;;;;104747;264;42187;-32
2023/03/13 06:32:26;;;;;;;5.50;3.20;;;;;;;;;;104717;264;38805;-32
2023/03/13 06:35:00;;;;;;;6.50;3.40;;;;;;;;;;104747;264;39454;-32
2023/03/13 06:37:35;;;;;;;5.10;3.00;;;;;;;;;;104760;264;42846;-32
2023/03/13 06:40:13;;;;;;;5.20;3.10;;;;;;;;;;104802;264;42161;-32
2023/03/13 06:42:47;;;;;;;5.50;3.20;;;;;;;;;;104756;264;39041;-32
2023/03/13 06:45:25;;;;;;;5.50;3.10;;;;;;;;;;104719;264;44990;-32
2023/03/13 06:47:58;;;;;;;5.40;3.00;;;;;;;;;;104716;264;42851;-32
2023/03/13 06:50:38;;;;;;;6.70;3.40;;;;;;;;;;104729;264;43121;-32
2023/03/13 06:53:18;;;;;;;5.80;3.50;;;;;;;;;;104599;264;175586;-32
2023/03/13 06:55:52;;;;;;;5.70;3.20;;;;;;;;;;104734;264;39846;-32
2023/03/13 06:58:27;;;;;;;6.30;3.40;;;;;;;;;;104764;264;42968;-32
2023/03/13 07:01:11;;;;;;;5.30;3.00;;;;;;;;;;104693;264;44377;-32
2023/03/13 07:03:46;;;;;;;5.60;3.00;;;;;;;;;;104736;264;40047;-32
2023/03/13 07:06:20;;;;;;;5.50;3.00;;;;;;;;;;104761;264;39702;-32
2023/03/13 07:08:55;;;;;;;5.00;2.80;;;;;;;;;;104787;264;42781;-32
2023/03/13 07:11:32;;;;;;;5.30;3.10;;;;;;;;;;104732;264;42155;-32
2023/03/13 07:14:10;;;;;;;5.90;3.20;;;;;;;;;;104084;264;896293;-32
2023/03/13 07:16:56;;;;;;;5.60;2.90;;;;;;;;;;104745;264;39830;-32
2023/03/13 07:19:30;;;;;;;5.30;3.10;;;;;;;;;;104737;252;42955;-32
2023/03/13 07:22:05;;;;;;;5.40;3.00;;;;;;;;;;104732;264;42160;-32
2023/03/13 07:24:39;;;;;;;5.10;2.90;;;;;;;;;;104742;264;38515;-32
2023/03/13 07:27:16;;;;;;;6.00;3.20;;;;;;;;;;104791;264;39779;-32
2023/03/13 07:29:52;;;;;;;5.70;3.20;;;;;;;;;;104787;264;42876;-32
2023/03/13 07:32:32;;;;;;;6.50;3.50;;;;;;;;;;104764;264;43311;-32
2023/03/13 07:35:09;;;;;;;6.10;3.10;;;;;;;;;;104706;264;38949;-32
2023/03/13 07:37:44;;;;;;;6.30;3.20;;;;;;;;;;104760;264;42146;-32
2023/03/13 07:40:22;;;;;;;6.60;3.00;;;;;;;;;;104764;264;43237;-32
2023/03/13 07:42:56;;;;;;;7.10;3.10;;;;;;;;;;104735;264;43929;-32
2023/03/13 07:45:30;;;;;;;7.60;3.20;;;;;;;;;;104728;264;38935;-32
2023/03/13 07:48:04;;;;;;;6.20;3.10;;;;;;;;;;104742;264;39342;-32
2023/03/13 07:50:40;;;;;;;6.60;3.30;;;;;;;;;;104737;264;42974;-32
2023/03/13 07:53:19;;;;;;;6.50;3.30;;;;;;;;;;104700;264;41917;-32
2023/03/13 07:56:11;;;;;;;7.20;3.60;;;;;;;;;;104703;264;38892;-31
2023/03/13 07:58:46;;;;;;;6.20;3.50;;;;;;;;;;104712;264;39708;-34
2023/03/13 08:01:25;;;;;;;8.30;3.70;;;;;;;;;;104641;265;43886;-33
2023/03/13 08:04:04;;;;;;;6.50;2.90;;;;;;;;;;104688;264;42369;-32
2023/03/13 08:06:39;;;;;;;6.80;3.50;;;;;;;;;;104675;264;38975;-33
2023/03/13 08:09:13;;;;;;;7.80;3.20;;;;;;;;;;104718;264;39386;-32
2023/03/13 08:11:47;;;;;;;8.40;3.70;;;;;;;;;;104610;264;175591;-32
2023/03/13 08:14:21;;;;;;;6.70;3.30;;;;;;;;;;104689;264;42286;-32
2023/03/13 08:16:55;;;;;;;6.80;3.40;;;;;;;;;;104670;264;39829;-32
2023/03/13 08:19:32;;;;;;;6.40;3.40;;;;;;;;;;104737;264;39734;-32
2023/03/13 08:22:08;;;;;;;7.20;3.50;;;;;;;;;;104717;264;42624;-32
2023/03/13 08:24:42;;;;;;;6.10;3.30;;;;;;;;;;104718;264;42108;-33
2023/03/13 08:27:17;;;;;;;6.20;3.20;;;;;;;;;;104634;265;45416;-33
2023/03/13 08:29:55;;;;;;;6.80;3.50;;;;;;;;;;104744;264;41027;-32
2023/03/13 08:32:28;;;;;;;5.60;3.20;;;;;;;;;;104716;264;42917;-33
2023/03/13 08:35:06;;;;;;;6.10;3.40;;;;;;;;;;104703;264;42169;-33
2023/03/13 08:37:39;;;;;;;6.30;3.10;;;;;;;;;;104800;264;46742;-33
2023/03/13 08:40:18;;;;;;;8.10;3.10;;;;;;;;;;104718;264;41054;-33
2023/03/13 08:42:53;;;;;;;5.90;3.20;;;;;;;;;;104698;264;43320;-33
2023/03/13 08:45:28;;;;;;;6.20;3.00;;;;;;;;;;104746;264;43279;-32
2023/03/13 08:48:04;;;;;;;7.10;3.30;;;;;;;;;;104740;264;38943;-32
2023/03/13 08:50:42;;;;;;;6.20;3.10;;;;;;;;;;104734;264;40740;-32
2023/03/13 08:53:15;;;;;;;6.90;3.30;;;;;;;;;;104711;264;43074;-32
2023/03/13 08:56:00;;;;;;;6.20;3.40;;;;;;;;;;104668;264;43412;-32
2023/03/13 08:58:35;;;;;;;6.70;3.20;;;;;;;;;;104719;264;44768;-32
2023/03/13 09:01:14;;;;;;;6.40;3.10;;;;;;;;;;104712;264;39591;-32
2023/03/13 09:03:47;;;;;;;6.60;3.50;;;;;;;;;;104654;264;44062;-32
2023/03/13 09:06:22;;;;;;;5.80;2.70;;;;;;;;;;104690;264;41933;-32
2023/03/13 09:08:59;;;;;;;5.40;3.10;;;;;;;;;;104735;264;44128;-32
2023/03/13 09:11:35;;;;;;;6.70;3.00;;;;;;;;;;104623;265;39849;-33
2023/03/13 09:14:14;;;;;;;6.00;3.00;;;;;;;;;;104690;264;42988;-33
2023/03/13 09:16:48;;;;;;;5.30;3.00;;;;;;;;;;104651;264;43364;-34
2023/03/13 09:19:22;;;;;;;6.50;3.10;;;;;;;;;;104641;264;38793;-35
2023/03/13 09:21:56;;;;;;;7.90;3.10;;;;;;;;;;104751;264;39719;-35
2023/03/13 09:24:32;;;;;;;5.70;3.30;;;;;;;;;;104701;264;42625;-36
2023/03/13 09:27:06;;;;;;;6.90;3.50;;;;;;;;;;104697;264;42165;-36
2023/03/13 09:29:42;;;;;;;5.30;3.10;;;;;;;;;;104714;264;38543;-34
2023/03/13 09:32:19;;;;;;;7.50;3.10;;;;;;;;;;104728;264;39489;-37
2023/03/13 09:34:55;;;;;;;6.30;2.80;;;;;;;;;;104594;264;42856;-34
2023/03/13 09:37:32;;;;;;;8.50;3.50;;;;;;;;;;104645;264;42564;-37
2023/03/13 09:40:09;;;;;;;7.50;4.10;;;;;;;;;;104663;264;38952;-35
2023/03/13 09:42:52;;;;;;;8.00;4.60;;;;;;;;;;104715;264;39752;-35
2023/03/13 09:45:35;;;;;;;6.70;4.00;;;;;;;;;;104668;265;43077;-35
2023/03/13 09:48:23;;;;;;;7.70;4.60;;;;;;;;;;104690;264;42200;-34
2023/03/13 09:51:06;;;;;;;7.10;4.60;;;;;;;;;;104661;264;38836;-34
2023/03/13 09:53:49;;;;;;;7.50;4.50;;;;;;;;;;104396;265;326168;-34
2023/03/13 09:56:28;;;;;;;8.40;4.00;;;;;;;;;;104682;266;42872;-34
2023/03/13 09:59:10;;;;;;;7.00;4.00;;;;;;;;;;104628;264;43594;-36
2023/03/13 10:01:45;;;;;;;7.00;3.80;;;;;;;;;;104669;264;38886;-36
2023/03/13 10:04:32;;;;;;;7.70;4.00;;;;;;;;;;104703;264;40100;-34
2023/03/13 10:07:08;;;;;;;7.30;4.20;;;;;;;;;;104707;264;43154;-37
2023/03/13 10:09:45;;;;;;;6.80;4.50;;;;;;;;;;104678;264;42195;-35
2023/03/13 10:12:27;;;;;;;7.40;4.30;;;;;;;;;;104679;265;38806;-35
2023/03/13 10:15:31;;;;;;;7.80;4.30;;;;;;;;;;104667;264;39698;-34
2023/03/13 10:18:20;;;;;;;6.90;3.90;;;;;;;;;;104611;265;44055;-34
2023/03/13 10:20:59;;;;;;;8.40;4.10;;;;;;;;;;104772;264;43215;-33
2023/03/13 10:23:41;;;;;;;7.30;3.80;;;;;;;;;;104731;264;39888;-33
2023/03/13 10:26:21;;;;;;;6.00;3.30;;;;;;;;;;104732;264;39663;-33
2023/03/13 10:29:01;;;;;;;6.30;3.40;;;;;;;;;;104710;264;44245;-33
2023/03/13 10:31:38;;;;;;;5.70;3.10;;;;;;;;;;104647;264;44453;-33
2023/03/13 10:34:15;;;;;;;6.40;3.00;;;;;;;;;;104749;264;39134;-33
2023/03/13 10:36:55;;;;;;;5.80;2.90;;;;;;;;;;104764;264;39671;-33
2023/03/13 10:39:31;;;;;;;5.60;2.80;;;;;;;;;;104678;264;44047;-32
2023/03/13 10:42:26;;;;;;;5.70;2.90;;;;;;;;;;104725;264;43264;-34
2023/03/13 10:45:07;;;;;;;5.50;2.90;;;;;;;;;;104741;264;38883;-34
2023/03/13 10:47:44;;;;;;;5.50;2.80;;;;;;;;;;104693;264;39920;-33
2023/03/13 10:50:26;;;;;;;5.50;2.70;;;;;;;;;;104652;264;43164;-33
2023/03/13 10:53:13;;;;;;;5.50;2.90;;;;;;;;;;104747;264;42411;-32
2023/03/13 10:55:49;;;;;;;5.80;2.90;;;;;;;;;;104622;264;39052;-32
2023/03/13 10:58:30;;;;;;;5.80;2.70;;;;;;;;;;104736;264;39805;-32
2023/03/13 11:01:20;;;;;;;6.70;3.00;;;;;;;;;;104691;264;49977;-32
2023/03/13 11:04:00;;;;;;;;;;;;;;;;;;104731;264;42196;-32
2023/03/13 11:06:41;;;;;;;5.20;2.60;;;;;;;;;;104713;264;40100;-32
2023/03/13 11:09:18;;;;;;;5.20;2.60;;;;;;;;;;104664;264;41056;-32
2023/03/13 11:11:55;;;;;;;4.90;2.60;;;;;;;;;;104705;264;44110;-32
2023/03/13 11:14:30;;;;;;;5.40;2.60;;;;;;;;;;104745;264;42211;-32
2023/03/13 11:17:15;;;;;;;4.80;2.60;;;;;;;;;;104693;264;38809;-33
2023/03/13 11:20:04;;;;;;;5.10;2.40;;;;;;;;;;104628;265;39831;-32
2023/03/13 11:22:59;;;;;;;5.90;2.70;;;;;;;;;;104699;264;43005;-32
2023/03/13 11:25:41;;;;;;;5.30;2.60;;;;;;;;;;104643;264;42211;-32
2023/03/13 11:28:30;;;;;;;5.70;2.80;;;;;;;;;;104738;264;39939;-32
2023/03/13 11:31:18;;;;;;;5.70;2.80;;;;;;;;;;104616;265;40062;-33
2023/03/13 11:33:58;;;;;;;5.00;2.50;;;;;;;;;;104672;264;43171;-32
2023/03/13 11:36:38;;;;;;;5.30;2.50;;;;;;;;;;104693;264;43369;-32
2023/03/13 11:39:48;;;;;;;5.80;2.70;;;;;;;;;;104755;264;38799;-32
2023/03/13 11:43:01;;;;;;;6.40;2.50;;;;;;;;;;104646;264;45345;-33
2023/03/13 11:46:08;;;;;;;4.60;2.40;;;;;;;;;;104639;264;44270;-32
2023/03/13 11:49:34;;;;;;;6.70;2.40;;;;;;;;;;104692;265;43375;-33
2023/03/13 11:52:26;;;;;;;5.20;2.60;;;;;;;;;;104395;264;38829;-32
2023/03/13 11:55:26;;;;;;;5.80;2.50;;;;;;;;;;104729;264;40144;-33
2023/03/13 11:58:20;;;;;;;4.50;2.30;;;;;;;;;;102482;264;3011445;-34
2023/03/13 12:01:01;;;;;;;4.80;2.20;;;;;;;;;;104692;264;42134;-32
2023/03/13 12:03:44;;;;;;;5.00;2.40;;;;;;;;;;104687;264;38890;-34
2023/03/13 12:06:29;;;;;;;5.20;2.50;;;;;;;;;;104718;264;39761;-33
2023/03/13 12:09:14;;;;;;;5.50;2.70;;;;;;;;;;104561;264;175561;-33
2023/03/13 12:12:02;;;;;;;4.90;2.40;;;;;;;;;;104563;265;175563;-33
2023/03/13 12:14:41;;;;;;;4.80;2.50;;;;;;;;;;104678;264;38854;-33
2023/03/13 12:17:22;;;;;;;4.50;2.40;;;;;;;;;;104705;264;40791;-33
2023/03/13 12:20:02;;;;;;;4.90;2.50;;;;;;;;;;104683;264;42817;-33
2023/03/13 12:22:45;;;;;;;4.90;2.00;;;;;;;;;;104703;264;42299;-34
2023/03/13 12:25:28;;;;;;;4.80;2.30;;;;;;;;;;104737;264;38923;-34
2023/03/13 12:28:23;;;;;;;4.70;2.40;;;;;;;;;;104731;264;39705;-33
2023/03/13 12:31:14;;;;;;;5.30;2.50;;;;;;;;;;104757;264;45301;-34
2023/03/13 12:34:00;;;;;;;4.80;2.30;;;;;;;;;;104760;264;47869;-34
2023/03/13 12:36:46;;;;;;;4.80;2.40;;;;;;;;;;104764;264;40052;-33
2023/03/13 12:39:32;;;;;;;5.50;2.50;;;;;;;;;;104716;264;39458;-32
2023/03/13 12:42:27;;;;;;;4.40;2.30;;;;;;;;;;104682;264;42892;-32
2023/03/13 12:45:05;;;;;;;5.90;2.40;;;;;;;;;;104696;264;41939;-34
2023/03/13 12:47:59;;;;;;;5.70;2.20;;;;;;;;;;104651;264;38780;-32
2023/03/13 12:50:48;;;;;;;5.60;2.60;;;;;;;;;;104655;264;40021;-32
2023/03/13 12:53:49;;;;;;;5.00;2.60;;;;;;;;;;104631;264;44167;-34
2023/03/13 12:57:01;;;;;;;5.10;2.30;;;;;;;;;;104677;264;42250;-33
2023/03/13 12:59:42;;;;;;;4.90;2.30;;;;;;;;;;104635;264;38821;-33
2023/03/13 13:02:22;;;;;;;4.00;2.00;;;;;;;;;;104690;264;39947;-33
2023/03/13 13:05:04;;;;;;;5.40;2.50;;;;;;;;;;104720;264;43106;-34
2023/03/13 13:07:39;;;;;;;4.10;2.00;;;;;;;;;;104710;265;42253;-34
2023/03/13 13:10:26;;;;;;;4.70;2.10;;;;;;;;;;104665;265;38814;-33
2023/03/13 13:13:30;;;;;;;4.50;2.20;;;;;;;;;;104677;264;39683;-33
2023/03/13 13:16:20;;;;;;;4.80;2.30;;;;;;;;;;104656;264;43042;-33
2023/03/13 13:19:03;;;;;;;4.40;2.10;;;;;;;;;;104570;264;175546;-33
2023/03/13 13:21:41;;;;;;;5.00;2.40;;;;;;;;;;104655;264;38837;-34
2023/03/13 13:24:47;;;;;;;4.70;2.10;;;;;;;;;;104657;264;39708;-32
2023/03/13 13:27:49;;;;;;;4.40;2.10;;;;;;;;;;104680;264;42863;-32
2023/03/13 13:30:37;;;;;;;4.70;2.20;;;;;;;;;;104734;264;43284;-32
2023/03/13 13:33:39;;;;;;;5.10;2.50;;;;;;;;;;104676;264;38785;-33
2023/03/13 13:36:33;;;;;;;4.80;2.30;;;;;;;;;;104622;264;39781;-33
2023/03/13 13:39:37;;;;;;;4.90;2.20;;;;;;;;;;104705;264;43251;-34
2023/03/13 13:42:48;;;;;;;4.40;2.30;;;;;;;;;;104707;264;41920;-34
2023/03/13 13:45:38;;;;;;;4.80;2.30;;;;;;;;;;104681;264;44511;-34
2023/03/13 13:48:36;;;;;;;4.50;2.10;;;;;;;;;;104667;264;39711;-33
2023/03/13 13:51:31;;;;;;;4.50;2.20;;;;;;;;;;104710;264;44360;-33
2023/03/13 13:54:31;;;;;;;4.30;2.10;;;;;;;;;;104689;264;42225;-33
2023/03/13 13:57:14;;;;;;;5.10;2.40;;;;;;;;;;104716;264;38582;-33
2023/03/13 13:59:52;;;;;;;4.00;2.10;;;;;;;;;;104559;265;177334;-33
2023/03/13 14:02:33;;;;;;;5.30;2.30;;;;;;;;;;104763;264;44071;-33
2023/03/13 14:05:16;;;;;;;4.60;2.20;;;;;;;;;;104663;264;42552;-33
2023/03/13 14:08:00;;;;;;;5.40;2.40;;;;;;;;;;104623;265;38899;-33
2023/03/13 14:10:44;;;;;;;4.70;2.00;;;;;;;;;;104757;264;39793;-33
2023/03/13 14:13:23;;;;;;;5.00;2.60;;;;;;;;;;104696;264;43190;-34
2023/03/13 14:16:22;;;;;;;5.20;2.30;;;;;;;;;;104701;264;43526;-32
2023/03/13 14:19:00;;;;;;;5.40;2.20;;;;;;;;;;104724;264;38981;-33
2023/03/13 14:21:39;;;;;;;5.80;2.40;;;;;;;;;;104645;265;39893;-33
2023/03/13 14:24:21;;;;;;;6.20;2.70;;;;;;;;;;104664;264;44066;-33
2023/03/13 14:26:57;;;;;;;8.00;3.10;;;;;;;;;;104704;264;42015;-32
2023/03/13 14:29:31;;;;;;;6.80;3.30;;;;;;;;;;104661;265;38669;-32
2023/03/13 14:32:08;;;;;;;6.80;3.00;;;;;;;;;;104764;264;41898;-33
2023/03/13 14:34:42;;;;;;;6.70;2.80;;;;;;;;;;104715;264;43955;-33
2023/03/13 14:37:43;;;;;;;6.70;3.10;;;;;;;;;;104775;264;42564;-34
2023/03/13 14:40:29;;;;;;;6.80;3.00;;;;;;;;;;104744;264;40578;-33
2023/03/13 14:43:06;;;;;;;6.70;3.30;;;;;;;;;;104763;264;39745;-33
2023/03/13 14:45:42;;;;;;;7.00;3.30;;;;;;;;;;104650;265;43196;-33
2023/03/13 14:48:23;;;;;;;7.10;3.10;;;;;;;;;;104729;264;42369;-33
2023/03/13 14:51:08;;;;;;;6.80;3.00;;;;;;;;;;104751;264;38864;-34
2023/03/13 14:54:04;;;;;;;7.50;3.30;;;;;;;;;;104738;264;39802;-34
2023/03/13 14:56:41;;;;;;;7.10;3.20;;;;;;;;;;104712;264;44016;-34
2023/03/13 14:59:26;;;;;;;7.10;3.20;;;;;;;;;;104737;264;43249;-34
2023/03/13 15:02:12;;;;;;;6.80;2.90;;;;;;;;;;104610;264;177351;-35
2023/03/13 15:05:00;;;;;;;6.20;3.20;;;;;;;;;;104679;264;39638;-33
2023/03/13 15:07:42;;;;;;;6.40;3.20;;;;;;;;;;104642;265;50342;-33
2023/03/13 15:10:33;;;;;;;7.40;3.10;;;;;;;;;;104694;264;42259;-33
2023/03/13 15:13:25;;;;;;;6.50;3.10;;;;;;;;;;104704;264;39186;-33
2023/03/13 15:16:02;;;;;;;7.00;2.80;;;;;;;;;;104645;264;40033;-33
2023/03/13 15:18:37;;;;;;;7.30;3.00;;;;;;;;;;104711;264;44075;-34
2023/03/13 15:21:28;;;;;;;6.50;3.00;;;;;;;;;;104681;264;42170;-34
2023/03/13 15:24:10;;;;;;;5.70;3.00;;;;;;;;;;104742;264;39864;-35
2023/03/13 15:26:42;;;;;;;;;;;;;;;;;;104703;264;40817;-35
2023/03/13 15:29:17;;;;;;;6.60;3.30;;;;;;;;;;104731;264;43509;-33
2023/03/13 15:31:51;;;;;;;6.80;2.80;;;;;;;;;;104733;264;42354;-33
2023/03/13 15:34:28;;;;;;;7.30;3.10;;;;;;;;;;104735;264;39090;-33
2023/03/13 15:37:02;;;;;;;6.90;3.30;;;;;;;;;;104661;264;39974;-33
2023/03/13 15:39:40;;;;;;;6.20;3.20;;;;;;;;;;104720;264;42621;-33
2023/03/13 15:42:16;;;;;;;6.30;3.00;;;;;;;;;;104717;264;42305;-33
2023/03/13 15:44:50;;;;;;;5.90;3.00;;;;;;;;;;104741;256;39032;-33
2023/03/13 15:47:26;;;;;;;6.70;3.20;;;;;;;;;;104579;264;39877;-33
2023/03/13 15:50:03;;;;;;;5.90;2.80;;;;;;;;;;104699;264;44045;-32
2023/03/13 15:52:37;;;;;;;5.50;2.80;;;;;;;;;;104732;264;43310;-32
2023/03/13 15:55:13;;;;;;;7.10;3.40;;;;;;;;;;104724;264;39099;-33
2023/03/13 15:57:51;;;;;;;6.10;3.30;;;;;;;;;;104679;264;39702;-33